sensor_id;sensor_type;location;lat;lon;timestamp;temperature;humidity
13610;DHT22;6876;50.788;4.940;2022-09-17T00:01:39;10.10;99.90
13610;DHT22;6876;50.788;4.940;2022-09-17T00:04:27;10.20;99.90
13610;DHT22;6876;50.788;4.940;2022-09-17T00:07:15;10.10;99.90
13610;DHT22;6876;50.788;4.940;2022-09-17T00:10:02;10.10;99.90
13610;DHT22;6876;50.788;4.940;2022-09-17T00:12:49;10.20;99.90
13610;DHT22;6876;50.788;4.940;2022-09-17T00:15:39;10.10;99.90
13610;DHT22;6876;50.788;4.940;2022-09-17T00:18:28;10.20;99.90
13610;DHT22;6876;50.788;4.940;2022-09-17T00:21:17;10.10;99.90
13610;DHT22;6876;50.788;4.940;2022-09-17T00:24:05;10.10;99.90
13610;DHT22;6876;50.788;4.940;2022-09-17T00:26:53;10.10;99.90
13610;DHT22;6876;50.788;4.940;2022-09-17T00:29:40;10.00;99.90
13610;DHT22;6876;50.788;4.940;2022-09-17T00:32:27;10.10;99.90
13610;DHT22;6876;50.788;4.940;2022-09-17T00:35:16;10.20;99.90
13610;DHT22;6876;50.788;4.940;2022-09-17T00:38:03;10.20;99.90
13610;DHT22;6876;50.788;4.940;2022-09-17T00:40:50;10.30;99.90
13610;DHT22;6876;50.788;4.940;2022-09-17T00:43:41;10.20;99.90
13610;DHT22;6876;50.788;4.940;2022-09-17T00:46:31;10.30;99.90
13610;DHT22;6876;50.788;4.940;2022-09-17T00:49:23;10.40;99.90
13610;DHT22;6876;50.788;4.940;2022-09-17T00:52:15;10.40;99.90
13610;DHT22;6876;50.788;4.940;2022-09-17T00:55:12;10.40;99.90
13610;DHT22;6876;50.788;4.940;2022-09-17T00:58:04;10.60;99.90
13610;DHT22;6876;50.788;4.940;2022-09-17T01:00:52;10.60;99.90
13610;DHT22;6876;50.788;4.940;2022-09-17T01:03:39;10.60;99.90
13610;DHT22;6876;50.788;4.940;2022-09-17T01:06:32;10.60;99.90
13610;DHT22;6876;50.788;4.940;2022-09-17T01:09:27;10.60;99.90
13610;DHT22;6876;50.788;4.940;2022-09-17T01:12:34;10.70;99.90
13610;DHT22;6876;50.788;4.940;2022-09-17T01:15:30;10.60;99.90
13610;DHT22;6876;50.788;4.940;2022-09-17T01:18:31;10.70;99.90
13610;DHT22;6876;50.788;4.940;2022-09-17T01:21:48;10.70;99.90
13610;DHT22;6876;50.788;4.940;2022-09-17T01:24:47;10.70;99.90
13610;DHT22;6876;50.788;4.940;2022-09-17T01:28:11;10.60;99.90
13610;DHT22;6876;50.788;4.940;2022-09-17T01:31:16;10.60;99.90
13610;DHT22;6876;50.788;4.940;2022-09-17T01:34:12;10.60;99.90
13610;DHT22;6876;50.788;4.940;2022-09-17T01:37:05;10.60;99.90
13610;DHT22;6876;50.788;4.940;2022-09-17T01:40:03;10.60;99.90
13610;DHT22;6876;50.788;4.940;2022-09-17T01:42:57;10.70;99.90
13610;DHT22;6876;50.788;4.940;2022-09-17T01:45:49;10.60;99.90
13610;DHT22;6876;50.788;4.940;2022-09-17T01:48:40;10.60;99.90
13610;DHT22;6876;50.788;4.940;2022-09-17T01:51:35;10.60;99.90
13610;DHT22;6876;50.788;4.940;2022-09-17T01:54:24;10.50;99.90
13610;DHT22;6876;50.788;4.940;2022-09-17T01:57:15;10.50;99.90
13610;DHT22;6876;50.788;4.940;2022-09-17T02:00:06;10.40;99.90
13610;DHT22;6876;50.788;4.940;2022-09-17T02:02:59;10.50;99.90
13610;DHT22;6876;50.788;4.940;2022-09-17T02:05:53;10.50;99.90
13610;DHT22;6876;50.788;4.940;2022-09-17T02:08:46;10.50;99.90
13610;DHT22;6876;50.788;4.940;2022-09-17T02:11:36;10.50;99.90
13610;DHT22;6876;50.788;4.940;2022-09-17T02:14:28;10.50;99.90
13610;DHT22;6876;50.788;4.940;2022-09-17T02:17:22;10.60;99.90
13610;DHT22;6876;50.788;4.940;2022-09-17T02:20:12;10.60;99.90
13610;DHT22;6876;50.788;4.940;2022-09-17T02:23:06;10.60;99.90
13610;DHT22;6876;50.788;4.940;2022-09-17T02:25:57;10.60;99.90
13610;DHT22;6876;50.788;4.940;2022-09-17T02:28:48;10.70;99.90
13610;DHT22;6876;50.788;4.940;2022-09-17T02:31:36;10.70;99.90
13610;DHT22;6876;50.788;4.940;2022-09-17T02:34:26;10.70;99.90
13610;DHT22;6876;50.788;4.940;2022-09-17T02:37:14;10.60;99.90
13610;DHT22;6876;50.788;4.940;2022-09-17T02:40:04;10.60;99.90
13610;DHT22;6876;50.788;4.940;2022-09-17T02:43:02;10.60;99.90
13610;DHT22;6876;50.788;4.940;2022-09-17T02:45:59;10.70;99.90
13610;DHT22;6876;50.788;4.940;2022-09-17T02:52:09;10.60;99.90
13610;DHT22;6876;50.788;4.940;2022-09-17T02:55:01;10.60;99.90
13610;DHT22;6876;50.788;4.940;2022-09-17T02:57:57;10.60;99.90
13610;DHT22;6876;50.788;4.940;2022-09-17T03:00:46;10.70;99.90
13610;DHT22;6876;50.788;4.940;2022-09-17T03:03:36;10.70;99.90
13610;DHT22;6876;50.788;4.940;2022-09-17T03:06:25;10.70;99.90
13610;DHT22;6876;50.788;4.940;2022-09-17T03:09:13;10.80;99.90
13610;DHT22;6876;50.788;4.940;2022-09-17T03:12:00;10.80;99.90
13610;DHT22;6876;50.788;4.940;2022-09-17T03:14:49;10.90;99.90
13610;DHT22;6876;50.788;4.940;2022-09-17T03:17:37;10.80;99.90
13610;DHT22;6876;50.788;4.940;2022-09-17T03:20:24;10.80;99.90
13610;DHT22;6876;50.788;4.940;2022-09-17T03:23:11;10.80;99.90
13610;DHT22;6876;50.788;4.940;2022-09-17T03:25:58;10.60;99.90
13610;DHT22;6876;50.788;4.940;2022-09-17T03:28:45;10.70;99.90
13610;DHT22;6876;50.788;4.940;2022-09-17T03:31:34;10.60;99.90
13610;DHT22;6876;50.788;4.940;2022-09-17T03:34:21;10.60;99.90
13610;DHT22;6876;50.788;4.940;2022-09-17T03:37:08;10.60;99.90
13610;DHT22;6876;50.788;4.940;2022-09-17T03:39:56;10.40;99.90
13610;DHT22;6876;50.788;4.940;2022-09-17T03:42:43;10.40;99.90
13610;DHT22;6876;50.788;4.940;2022-09-17T03:45:30;10.30;99.90
13610;DHT22;6876;50.788;4.940;2022-09-17T03:48:18;10.30;99.90
13610;DHT22;6876;50.788;4.940;2022-09-17T03:51:06;10.20;99.90
13610;DHT22;6876;50.788;4.940;2022-09-17T03:53:54;10.20;99.90
13610;DHT22;6876;50.788;4.940;2022-09-17T03:56:41;10.10;99.90
13610;DHT22;6876;50.788;4.940;2022-09-17T03:59:28;10.10;99.90
13610;DHT22;6876;50.788;4.940;2022-09-17T04:02:15;10.10;99.90
13610;DHT22;6876;50.788;4.940;2022-09-17T04:05:05;10.10;99.90
13610;DHT22;6876;50.788;4.940;2022-09-17T04:07:53;10.00;99.90
13610;DHT22;6876;50.788;4.940;2022-09-17T04:10:40;10.00;99.90
13610;DHT22;6876;50.788;4.940;2022-09-17T04:13:27;10.10;99.90
13610;DHT22;6876;50.788;4.940;2022-09-17T04:16:14;10.00;99.90
13610;DHT22;6876;50.788;4.940;2022-09-17T04:19:02;10.00;99.90
13610;DHT22;6876;50.788;4.940;2022-09-17T04:21:50;10.00;99.90
13610;DHT22;6876;50.788;4.940;2022-09-17T04:24:37;10.00;99.90
13610;DHT22;6876;50.788;4.940;2022-09-17T04:27:25;10.00;99.90
13610;DHT22;6876;50.788;4.940;2022-09-17T04:30:12;10.00;99.90
13610;DHT22;6876;50.788;4.940;2022-09-17T04:33:00;10.00;99.90
13610;DHT22;6876;50.788;4.940;2022-09-17T04:35:47;10.00;99.90
13610;DHT22;6876;50.788;4.940;2022-09-17T04:38:35;10.10;99.90
13610;DHT22;6876;50.788;4.940;2022-09-17T04:41:22;10.10;99.90
13610;DHT22;6876;50.788;4.940;2022-09-17T04:44:10;10.10;99.90
13610;DHT22;6876;50.788;4.940;2022-09-17T04:46:57;10.00;99.90
13610;DHT22;6876;50.788;4.940;2022-09-17T04:49:44;10.00;99.90
13610;DHT22;6876;50.788;4.940;2022-09-17T04:52:31;10.00;99.90
13610;DHT22;6876;50.788;4.940;2022-09-17T04:55:20;10.00;99.90
13610;DHT22;6876;50.788;4.940;2022-09-17T04:58:07;10.10;99.90
13610;DHT22;6876;50.788;4.940;2022-09-17T05:00:55;10.10;99.90
13610;DHT22;6876;50.788;4.940;2022-09-17T05:03:42;10.20;99.90
13610;DHT22;6876;50.788;4.940;2022-09-17T05:06:29;10.10;99.90
13610;DHT22;6876;50.788;4.940;2022-09-17T05:09:16;10.20;99.90
13610;DHT22;6876;50.788;4.940;2022-09-17T05:12:06;10.10;99.90
13610;DHT22;6876;50.788;4.940;2022-09-17T05:14:53;10.20;99.90
13610;DHT22;6876;50.788;4.940;2022-09-17T05:17:40;10.20;99.90
13610;DHT22;6876;50.788;4.940;2022-09-17T05:20:27;10.20;99.90
13610;DHT22;6876;50.788;4.940;2022-09-17T05:23:15;10.20;99.90
13610;DHT22;6876;50.788;4.940;2022-09-17T05:26:02;10.20;99.90
13610;DHT22;6876;50.788;4.940;2022-09-17T05:28:51;10.20;99.90
13610;DHT22;6876;50.788;4.940;2022-09-17T05:31:38;10.30;99.90
13610;DHT22;6876;50.788;4.940;2022-09-17T05:34:25;10.50;99.90
13610;DHT22;6876;50.788;4.940;2022-09-17T05:37:13;10.50;99.90
13610;DHT22;6876;50.788;4.940;2022-09-17T05:40:00;10.60;99.90
13610;DHT22;6876;50.788;4.940;2022-09-17T05:42:48;10.60;99.90
13610;DHT22;6876;50.788;4.940;2022-09-17T05:45:37;10.60;99.90
13610;DHT22;6876;50.788;4.940;2022-09-17T05:48:24;10.60;99.90
13610;DHT22;6876;50.788;4.940;2022-09-17T05:51:11;10.60;99.90
13610;DHT22;6876;50.788;4.940;2022-09-17T05:53:59;10.60;99.90
13610;DHT22;6876;50.788;4.940;2022-09-17T05:56:46;10.60;99.90
13610;DHT22;6876;50.788;4.940;2022-09-17T05:59:33;10.60;99.90
13610;DHT22;6876;50.788;4.940;2022-09-17T06:02:22;10.50;99.90
13610;DHT22;6876;50.788;4.940;2022-09-17T06:05:09;10.60;99.90
13610;DHT22;6876;50.788;4.940;2022-09-17T06:07:56;10.60;99.90
13610;DHT22;6876;50.788;4.940;2022-09-17T06:10:44;10.60;99.90
13610;DHT22;6876;50.788;4.940;2022-09-17T06:13:32;10.60;99.90
13610;DHT22;6876;50.788;4.940;2022-09-17T06:16:20;10.60;99.90
13610;DHT22;6876;50.788;4.940;2022-09-17T06:19:09;10.70;99.90
13610;DHT22;6876;50.788;4.940;2022-09-17T06:21:56;10.70;99.90
13610;DHT22;6876;50.788;4.940;2022-09-17T06:24:43;10.80;99.90
13610;DHT22;6876;50.788;4.940;2022-09-17T06:27:30;10.80;99.90
13610;DHT22;6876;50.788;4.940;2022-09-17T06:30:18;10.90;99.90
13610;DHT22;6876;50.788;4.940;2022-09-17T06:33:05;10.90;99.90
13610;DHT22;6876;50.788;4.940;2022-09-17T06:35:56;11.00;99.90
13610;DHT22;6876;50.788;4.940;2022-09-17T06:38:45;11.10;99.90
13610;DHT22;6876;50.788;4.940;2022-09-17T06:41:33;11.10;99.90
13610;DHT22;6876;50.788;4.940;2022-09-17T06:44:28;11.20;99.90
13610;DHT22;6876;50.788;4.940;2022-09-17T06:47:16;11.40;99.90
13610;DHT22;6876;50.788;4.940;2022-09-17T06:50:04;11.50;99.90
13610;DHT22;6876;50.788;4.940;2022-09-17T06:52:53;11.50;99.90
13610;DHT22;6876;50.788;4.940;2022-09-17T06:55:41;11.50;99.90
13610;DHT22;6876;50.788;4.940;2022-09-17T06:58:29;11.40;99.90
13610;DHT22;6876;50.788;4.940;2022-09-17T07:01:16;11.50;99.90
13610;DHT22;6876;50.788;4.940;2022-09-17T07:04:03;11.50;99.90
13610;DHT22;6876;50.788;4.940;2022-09-17T07:06:50;11.40;99.90
13610;DHT22;6876;50.788;4.940;2022-09-17T07:09:39;11.40;99.90
13610;DHT22;6876;50.788;4.940;2022-09-17T07:12:26;11.40;99.90
13610;DHT22;6876;50.788;4.940;2022-09-17T07:15:13;11.50;99.90
13610;DHT22;6876;50.788;4.940;2022-09-17T07:18:07;11.70;99.90
13610;DHT22;6876;50.788;4.940;2022-09-17T07:20:55;12.00;99.90
13610;DHT22;6876;50.788;4.940;2022-09-17T07:23:42;13.40;99.90
13610;DHT22;6876;50.788;4.940;2022-09-17T07:26:32;14.70;99.90
13610;DHT22;6876;50.788;4.940;2022-09-17T07:29:19;15.30;99.90
13610;DHT22;6876;50.788;4.940;2022-09-17T07:32:06;15.80;99.90
13610;DHT22;6876;50.788;4.940;2022-09-17T07:34:53;17.30;99.90
13610;DHT22;6876;50.788;4.940;2022-09-17T07:37:41;18.30;99.90
13610;DHT22;6876;50.788;4.940;2022-09-17T07:40:28;18.90;99.90
13610;DHT22;6876;50.788;4.940;2022-09-17T07:43:16;19.80;99.90
13610;DHT22;6876;50.788;4.940;2022-09-17T07:46:05;20.30;99.90
13610;DHT22;6876;50.788;4.940;2022-09-17T07:48:52;19.30;99.90
13610;DHT22;6876;50.788;4.940;2022-09-17T07:51:39;17.60;99.90
13610;DHT22;6876;50.788;4.940;2022-09-17T07:54:26;17.00;99.90
13610;DHT22;6876;50.788;4.940;2022-09-17T07:57:14;15.60;99.90
13610;DHT22;6876;50.788;4.940;2022-09-17T08:00:03;14.70;99.90
13610;DHT22;6876;50.788;4.940;2022-09-17T08:02:54;14.10;99.90
13610;DHT22;6876;50.788;4.940;2022-09-17T08:05:41;13.90;99.90
13610;DHT22;6876;50.788;4.940;2022-09-17T08:08:30;13.80;99.90
13610;DHT22;6876;50.788;4.940;2022-09-17T08:11:19;14.00;99.90
13610;DHT22;6876;50.788;4.940;2022-09-17T08:14:10;14.40;99.90
13610;DHT22;6876;50.788;4.940;2022-09-17T08:16:59;16.70;99.90
13610;DHT22;6876;50.788;4.940;2022-09-17T08:19:47;19.10;99.90
13610;DHT22;6876;50.788;4.940;2022-09-17T08:22:34;19.20;99.90
13610;DHT22;6876;50.788;4.940;2022-09-17T08:25:21;20.30;99.90
13610;DHT22;6876;50.788;4.940;2022-09-17T08:28:09;21.00;99.90
13610;DHT22;6876;50.788;4.940;2022-09-17T08:30:59;21.30;99.90
13610;DHT22;6876;50.788;4.940;2022-09-17T08:33:48;20.80;99.90
13610;DHT22;6876;50.788;4.940;2022-09-17T08:36:36;19.40;99.90
13610;DHT22;6876;50.788;4.940;2022-09-17T08:39:23;21.00;99.90
13610;DHT22;6876;50.788;4.940;2022-09-17T08:42:14;22.40;99.90
13610;DHT22;6876;50.788;4.940;2022-09-17T08:45:09;22.20;99.90
13610;DHT22;6876;50.788;4.940;2022-09-17T08:48:01;22.10;99.90
13610;DHT22;6876;50.788;4.940;2022-09-17T08:50:51;20.90;99.90
13610;DHT22;6876;50.788;4.940;2022-09-17T08:53:45;19.40;99.90
13610;DHT22;6876;50.788;4.940;2022-09-17T08:56:36;17.50;99.90
13610;DHT22;6876;50.788;4.940;2022-09-17T08:59:27;16.10;99.90
13610;DHT22;6876;50.788;4.940;2022-09-17T09:02:26;15.30;99.90
13610;DHT22;6876;50.788;4.940;2022-09-17T09:05:20;16.50;99.90
13610;DHT22;6876;50.788;4.940;2022-09-17T09:08:15;19.10;99.90
13610;DHT22;6876;50.788;4.940;2022-09-17T09:11:10;21.30;99.90
13610;DHT22;6876;50.788;4.940;2022-09-17T09:14:03;22.70;99.90
13610;DHT22;6876;50.788;4.940;2022-09-17T09:16:54;24.00;99.90
13610;DHT22;6876;50.788;4.940;2022-09-17T09:19:44;24.80;99.90
13610;DHT22;6876;50.788;4.940;2022-09-17T09:22:42;24.00;99.90
13610;DHT22;6876;50.788;4.940;2022-09-17T09:25:35;25.10;99.90
13610;DHT22;6876;50.788;4.940;2022-09-17T09:31:59;26.00;99.90
13610;DHT22;6876;50.788;4.940;2022-09-17T09:34:49;22.50;99.90
13610;DHT22;6876;50.788;4.940;2022-09-17T09:37:39;23.00;99.90
13610;DHT22;6876;50.788;4.940;2022-09-17T09:40:36;21.80;99.90
13610;DHT22;6876;50.788;4.940;2022-09-17T09:43:35;19.80;99.90
13610;DHT22;6876;50.788;4.940;2022-09-17T09:46:36;17.90;99.90
13610;DHT22;6876;50.788;4.940;2022-09-17T09:49:37;17.10;99.90
13610;DHT22;6876;50.788;4.940;2022-09-17T09:52:37;16.50;99.90
13610;DHT22;6876;50.788;4.940;2022-09-17T09:55:52;16.00;99.90
13610;DHT22;6876;50.788;4.940;2022-09-17T09:58:40;15.90;99.90
13610;DHT22;6876;50.788;4.940;2022-09-17T10:01:28;16.10;99.90
13610;DHT22;6876;50.788;4.940;2022-09-17T10:04:19;16.40;99.90
13610;DHT22;6876;50.788;4.940;2022-09-17T10:07:09;16.40;99.90
13610;DHT22;6876;50.788;4.940;2022-09-17T10:10:08;16.70;99.90
13610;DHT22;6876;50.788;4.940;2022-09-17T10:13:09;16.90;99.90
13610;DHT22;6876;50.788;4.940;2022-09-17T10:16:15;16.60;99.90
13610;DHT22;6876;50.788;4.940;2022-09-17T10:19:12;16.40;99.90
13610;DHT22;6876;50.788;4.940;2022-09-17T10:22:24;16.20;99.90
13610;DHT22;6876;50.788;4.940;2022-09-17T10:25:27;16.80;99.90
13610;DHT22;6876;50.788;4.940;2022-09-17T10:28:44;18.50;99.90
13610;DHT22;6876;50.788;4.940;2022-09-17T10:31:46;19.80;99.90
13610;DHT22;6876;50.788;4.940;2022-09-17T10:34:33;20.10;99.90
13610;DHT22;6876;50.788;4.940;2022-09-17T10:37:33;19.20;99.90
13610;DHT22;6876;50.788;4.940;2022-09-17T10:40:26;18.50;99.90
13610;DHT22;6876;50.788;4.940;2022-09-17T10:43:21;17.80;99.90
13610;DHT22;6876;50.788;4.940;2022-09-17T10:46:13;17.30;99.90
13610;DHT22;6876;50.788;4.940;2022-09-17T10:49:09;16.50;99.90
13610;DHT22;6876;50.788;4.940;2022-09-17T10:52:04;15.80;99.90
13610;DHT22;6876;50.788;4.940;2022-09-17T10:55:15;15.10;99.90
13610;DHT22;6876;50.788;4.940;2022-09-17T10:58:14;14.40;99.90
13610;DHT22;6876;50.788;4.940;2022-09-17T11:01:13;14.20;99.90
13610;DHT22;6876;50.788;4.940;2022-09-17T11:04:20;14.00;99.90
13610;DHT22;6876;50.788;4.940;2022-09-17T11:07:31;14.00;99.90
13610;DHT22;6876;50.788;4.940;2022-09-17T11:10:26;14.10;99.90
13610;DHT22;6876;50.788;4.940;2022-09-17T11:13:23;14.30;99.90
13610;DHT22;6876;50.788;4.940;2022-09-17T11:16:33;14.40;99.90
13610;DHT22;6876;50.788;4.940;2022-09-17T11:19:32;14.80;99.90
13610;DHT22;6876;50.788;4.940;2022-09-17T11:22:26;15.20;99.90
13610;DHT22;6876;50.788;4.940;2022-09-17T11:25:30;15.60;99.90
13610;DHT22;6876;50.788;4.940;2022-09-17T11:28:38;15.80;99.90
13610;DHT22;6876;50.788;4.940;2022-09-17T11:31:36;15.70;99.90
13610;DHT22;6876;50.788;4.940;2022-09-17T11:34:28;15.50;99.90
13610;DHT22;6876;50.788;4.940;2022-09-17T11:37:21;15.40;99.90
13610;DHT22;6876;50.788;4.940;2022-09-17T11:40:14;15.40;99.90
13610;DHT22;6876;50.788;4.940;2022-09-17T11:43:10;15.50;99.90
13610;DHT22;6876;50.788;4.940;2022-09-17T11:46:02;15.50;99.90
13610;DHT22;6876;50.788;4.940;2022-09-17T11:48:56;15.50;99.90
13610;DHT22;6876;50.788;4.940;2022-09-17T11:51:48;15.40;99.90
13610;DHT22;6876;50.788;4.940;2022-09-17T11:54:39;15.50;99.90
13610;DHT22;6876;50.788;4.940;2022-09-17T11:57:32;15.40;99.90
13610;DHT22;6876;50.788;4.940;2022-09-17T12:00:21;15.30;99.90
13610;DHT22;6876;50.788;4.940;2022-09-17T12:03:13;15.40;99.90
13610;DHT22;6876;50.788;4.940;2022-09-17T12:06:08;15.30;99.90
13610;DHT22;6876;50.788;4.940;2022-09-17T12:09:00;15.20;99.90
13610;DHT22;6876;50.788;4.940;2022-09-17T12:11:52;15.10;99.90
13610;DHT22;6876;50.788;4.940;2022-09-17T12:14:45;15.00;99.90
13610;DHT22;6876;50.788;4.940;2022-09-17T12:17:37;14.80;99.90
13610;DHT22;6876;50.788;4.940;2022-09-17T12:20:31;14.60;99.90
13610;DHT22;6876;50.788;4.940;2022-09-17T12:23:28;14.70;99.90
13610;DHT22;6876;50.788;4.940;2022-09-17T12:26:29;14.80;99.90
13610;DHT22;6876;50.788;4.940;2022-09-17T12:29:32;15.40;99.90
13610;DHT22;6876;50.788;4.940;2022-09-17T12:32:41;15.40;99.90
13610;DHT22;6876;50.788;4.940;2022-09-17T12:36:02;15.60;99.90
13610;DHT22;6876;50.788;4.940;2022-09-17T12:39:17;15.70;99.90
13610;DHT22;6876;50.788;4.940;2022-09-17T12:42:17;15.90;99.90
13610;DHT22;6876;50.788;4.940;2022-09-17T12:45:18;15.70;99.90
13610;DHT22;6876;50.788;4.940;2022-09-17T12:48:21;15.60;99.90
13610;DHT22;6876;50.788;4.940;2022-09-17T12:51:24;15.50;99.90
13610;DHT22;6876;50.788;4.940;2022-09-17T12:57:35;16.30;99.90
13610;DHT22;6876;50.788;4.940;2022-09-17T13:00:26;16.20;99.90
13610;DHT22;6876;50.788;4.940;2022-09-17T13:03:18;16.10;99.90
13610;DHT22;6876;50.788;4.940;2022-09-17T13:06:27;16.00;99.90
13610;DHT22;6876;50.788;4.940;2022-09-17T13:09:41;15.70;99.90
13610;DHT22;6876;50.788;4.940;2022-09-17T13:12:38;15.70;99.90
13610;DHT22;6876;50.788;4.940;2022-09-17T13:15:50;15.90;99.90
13610;DHT22;6876;50.788;4.940;2022-09-17T13:18:45;16.30;99.90
13610;DHT22;6876;50.788;4.940;2022-09-17T13:21:38;16.30;99.90
13610;DHT22;6876;50.788;4.940;2022-09-17T13:24:28;16.20;99.90
13610;DHT22;6876;50.788;4.940;2022-09-17T13:27:21;16.00;99.90
13610;DHT22;6876;50.788;4.940;2022-09-17T13:30:11;15.80;99.90
13610;DHT22;6876;50.788;4.940;2022-09-17T13:33:00;15.70;99.90
13610;DHT22;6876;50.788;4.940;2022-09-17T13:35:51;15.80;99.90
13610;DHT22;6876;50.788;4.940;2022-09-17T13:38:40;16.10;99.90
13610;DHT22;6876;50.788;4.940;2022-09-17T13:41:30;16.60;99.90
13610;DHT22;6876;50.788;4.940;2022-09-17T13:44:21;17.30;99.90
13610;DHT22;6876;50.788;4.940;2022-09-17T13:47:22;17.70;99.90
13610;DHT22;6876;50.788;4.940;2022-09-17T13:50:24;18.00;99.90
13610;DHT22;6876;50.788;4.940;2022-09-17T13:53:16;18.00;99.90
13610;DHT22;6876;50.788;4.940;2022-09-17T13:56:28;18.10;99.90
13610;DHT22;6876;50.788;4.940;2022-09-17T13:59:19;18.10;99.90
13610;DHT22;6876;50.788;4.940;2022-09-17T14:02:35;18.00;99.90
13610;DHT22;6876;50.788;4.940;2022-09-17T14:05:33;17.40;99.90
13610;DHT22;6876;50.788;4.940;2022-09-17T14:08:30;16.80;99.90
13610;DHT22;6876;50.788;4.940;2022-09-17T14:11:36;16.40;99.90
13610;DHT22;6876;50.788;4.940;2022-09-17T14:14:40;16.10;99.90
13610;DHT22;6876;50.788;4.940;2022-09-17T14:17:50;15.90;99.90
13610;DHT22;6876;50.788;4.940;2022-09-17T14:20:38;15.50;99.90
13610;DHT22;6876;50.788;4.940;2022-09-17T14:23:26;15.10;99.90
13610;DHT22;6876;50.788;4.940;2022-09-17T14:26:18;14.80;99.90
13610;DHT22;6876;50.788;4.940;2022-09-17T14:29:20;14.40;99.90
13610;DHT22;6876;50.788;4.940;2022-09-17T14:32:14;14.40;99.90
13610;DHT22;6876;50.788;4.940;2022-09-17T14:35:16;14.40;99.90
13610;DHT22;6876;50.788;4.940;2022-09-17T14:38:11;14.60;99.90
13610;DHT22;6876;50.788;4.940;2022-09-17T14:41:03;14.70;99.90
13610;DHT22;6876;50.788;4.940;2022-09-17T14:43:53;14.90;99.90
13610;DHT22;6876;50.788;4.940;2022-09-17T14:46:47;15.10;99.90
13610;DHT22;6876;50.788;4.940;2022-09-17T14:49:38;15.20;99.90
13610;DHT22;6876;50.788;4.940;2022-09-17T14:52:29;15.20;99.90
13610;DHT22;6876;50.788;4.940;2022-09-17T14:55:18;15.40;99.90
13610;DHT22;6876;50.788;4.940;2022-09-17T14:58:24;15.40;99.90
13610;DHT22;6876;50.788;4.940;2022-09-17T15:01:21;15.50;99.90
13610;DHT22;6876;50.788;4.940;2022-09-17T15:04:21;15.60;99.90
13610;DHT22;6876;50.788;4.940;2022-09-17T15:07:11;15.70;99.90
13610;DHT22;6876;50.788;4.940;2022-09-17T15:10:07;15.90;99.90
13610;DHT22;6876;50.788;4.940;2022-09-17T15:12:55;16.00;99.90
13610;DHT22;6876;50.788;4.940;2022-09-17T15:15:51;15.90;99.90
13610;DHT22;6876;50.788;4.940;2022-09-17T15:18:41;15.80;99.90
13610;DHT22;6876;50.788;4.940;2022-09-17T15:21:32;15.70;99.90
13610;DHT22;6876;50.788;4.940;2022-09-17T15:24:23;15.60;99.90
13610;DHT22;6876;50.788;4.940;2022-09-17T15:27:19;15.50;99.90
13610;DHT22;6876;50.788;4.940;2022-09-17T15:30:10;15.20;99.90
13610;DHT22;6876;50.788;4.940;2022-09-17T15:33:00;15.00;99.90
13610;DHT22;6876;50.788;4.940;2022-09-17T15:35:58;15.10;99.90
13610;DHT22;6876;50.788;4.940;2022-09-17T15:38:46;15.10;99.90
13610;DHT22;6876;50.788;4.940;2022-09-17T15:41:34;15.00;99.90
13610;DHT22;6876;50.788;4.940;2022-09-17T15:44:24;14.90;99.90
13610;DHT22;6876;50.788;4.940;2022-09-17T15:47:35;15.00;99.90
13610;DHT22;6876;50.788;4.940;2022-09-17T15:50:24;14.90;99.90
13610;DHT22;6876;50.788;4.940;2022-09-17T15:53:13;14.80;99.90
13610;DHT22;6876;50.788;4.940;2022-09-17T15:56:03;14.90;99.90
13610;DHT22;6876;50.788;4.940;2022-09-17T15:58:54;14.90;99.90
13610;DHT22;6876;50.788;4.940;2022-09-17T16:01:54;14.70;99.90
13610;DHT22;6876;50.788;4.940;2022-09-17T16:04:41;14.60;99.90
13610;DHT22;6876;50.788;4.940;2022-09-17T16:07:29;14.60;99.90
13610;DHT22;6876;50.788;4.940;2022-09-17T16:10:17;14.50;99.90
13610;DHT22;6876;50.788;4.940;2022-09-17T16:13:05;14.30;99.90
13610;DHT22;6876;50.788;4.940;2022-09-17T16:15:52;14.30;99.90
13610;DHT22;6876;50.788;4.940;2022-09-17T16:18:41;14.20;99.90
13610;DHT22;6876;50.788;4.940;2022-09-17T16:21:28;14.10;99.90
13610;DHT22;6876;50.788;4.940;2022-09-17T16:24:16;14.00;99.90
13610;DHT22;6876;50.788;4.940;2022-09-17T16:27:03;13.90;99.90
13610;DHT22;6876;50.788;4.940;2022-09-17T16:29:58;13.80;99.90
13610;DHT22;6876;50.788;4.940;2022-09-17T16:32:47;13.70;99.90
13610;DHT22;6876;50.788;4.940;2022-09-17T16:35:35;13.70;99.90
13610;DHT22;6876;50.788;4.940;2022-09-17T16:38:23;13.60;99.90
13610;DHT22;6876;50.788;4.940;2022-09-17T16:41:11;13.50;99.90
13610;DHT22;6876;50.788;4.940;2022-09-17T16:43:58;13.40;99.90
13610;DHT22;6876;50.788;4.940;2022-09-17T16:46:45;13.40;99.90
13610;DHT22;6876;50.788;4.940;2022-09-17T16:49:32;13.30;99.90
13610;DHT22;6876;50.788;4.940;2022-09-17T16:52:21;13.30;99.90
13610;DHT22;6876;50.788;4.940;2022-09-17T16:55:09;13.30;99.90
13610;DHT22;6876;50.788;4.940;2022-09-17T16:57:56;13.30;99.90
13610;DHT22;6876;50.788;4.940;2022-09-17T17:00:44;13.30;99.90
13610;DHT22;6876;50.788;4.940;2022-09-17T17:03:31;13.30;99.90
13610;DHT22;6876;50.788;4.940;2022-09-17T17:06:20;13.20;99.90
13610;DHT22;6876;50.788;4.940;2022-09-17T17:09:08;13.10;99.90
13610;DHT22;6876;50.788;4.940;2022-09-17T17:11:57;13.00;99.90
13610;DHT22;6876;50.788;4.940;2022-09-17T17:14:44;12.90;99.90
13610;DHT22;6876;50.788;4.940;2022-09-17T17:17:35;12.80;99.90
13610;DHT22;6876;50.788;4.940;2022-09-17T17:20:22;12.70;99.90
13610;DHT22;6876;50.788;4.940;2022-09-17T17:23:09;12.60;99.90
13610;DHT22;6876;50.788;4.940;2022-09-17T17:25:58;12.60;99.90
13610;DHT22;6876;50.788;4.940;2022-09-17T17:28:46;12.50;99.90
13610;DHT22;6876;50.788;4.940;2022-09-17T17:31:38;12.50;99.90
13610;DHT22;6876;50.788;4.940;2022-09-17T17:34:33;12.50;99.90
13610;DHT22;6876;50.788;4.940;2022-09-17T17:37:22;12.60;99.90
13610;DHT22;6876;50.788;4.940;2022-09-17T17:40:14;12.50;99.90
13610;DHT22;6876;50.788;4.940;2022-09-17T17:43:05;12.50;99.90
13610;DHT22;6876;50.788;4.940;2022-09-17T17:45:52;12.70;99.90
13610;DHT22;6876;50.788;4.940;2022-09-17T17:48:39;12.70;99.90
13610;DHT22;6876;50.788;4.940;2022-09-17T17:51:28;12.60;99.90
13610;DHT22;6876;50.788;4.940;2022-09-17T17:54:15;12.70;99.90
13610;DHT22;6876;50.788;4.940;2022-09-17T17:57:03;12.70;99.90
13610;DHT22;6876;50.788;4.940;2022-09-17T17:59:51;12.60;99.90
13610;DHT22;6876;50.788;4.940;2022-09-17T18:02:38;12.50;99.90
13610;DHT22;6876;50.788;4.940;2022-09-17T18:05:26;12.50;99.90
13610;DHT22;6876;50.788;4.940;2022-09-17T18:08:13;12.50;99.90
13610;DHT22;6876;50.788;4.940;2022-09-17T18:11:00;12.50;99.90
13610;DHT22;6876;50.788;4.940;2022-09-17T18:13:50;12.50;99.90
13610;DHT22;6876;50.788;4.940;2022-09-17T18:16:39;12.50;99.90
13610;DHT22;6876;50.788;4.940;2022-09-17T18:19:26;12.50;99.90
13610;DHT22;6876;50.788;4.940;2022-09-17T18:22:13;12.50;99.90
13610;DHT22;6876;50.788;4.940;2022-09-17T18:25:01;12.50;99.90
13610;DHT22;6876;50.788;4.940;2022-09-17T18:27:48;12.50;99.90
13610;DHT22;6876;50.788;4.940;2022-09-17T18:30:35;12.50;99.90
13610;DHT22;6876;50.788;4.940;2022-09-17T18:33:26;12.40;99.90